sensor_id;sensor_type;location;lat;lon;timestamp;P1;durP1;ratioP1;P2;durP2;ratioP2
45764;SDS011;31474;45.332;10.230;2023-02-23T00:01:58;108.32;;;50.80;;
45764;SDS011;31474;45.332;10.230;2023-02-23T00:04:31;111.07;;;51.60;;
45764;SDS011;31474;45.332;10.230;2023-02-23T00:06:57;116.78;;;53.78;;
45764;SDS011;31474;45.332;10.230;2023-02-23T00:09:23;108.40;;;50.90;;
45764;SDS011;31474;45.332;10.230;2023-02-23T00:11:49;116.97;;;50.55;;
45764;SDS011;31474;45.332;10.230;2023-02-23T00:14:25;109.03;;;52.22;;
45764;SDS011;31474;45.332;10.230;2023-02-23T00:16:53;118.95;;;52.63;;
45764;SDS011;31474;45.332;10.230;2023-02-23T00:19:19;110.82;;;52.05;;
45764;SDS011;31474;45.332;10.230;2023-02-23T00:21:48;113.68;;;52.13;;
45764;SDS011;31474;45.332;10.230;2023-02-23T00:24:15;117.20;;;54.38;;
45764;SDS011;31474;45.332;10.230;2023-02-23T00:26:43;117.97;;;53.35;;
45764;SDS011;31474;45.332;10.230;2023-02-23T00:29:12;132.25;;;53.00;;
45764;SDS011;31474;45.332;10.230;2023-02-23T00:31:41;116.93;;;51.67;;
45764;SDS011;31474;45.332;10.230;2023-02-23T00:34:08;117.70;;;51.75;;
45764;SDS011;31474;45.332;10.230;2023-02-23T00:36:36;118.72;;;51.55;;
45764;SDS011;31474;45.332;10.230;2023-02-23T00:39:04;112.15;;;51.75;;
45764;SDS011;31474;45.332;10.230;2023-02-23T00:41:44;123.47;;;54.28;;
45764;SDS011;31474;45.332;10.230;2023-02-23T00:44:11;112.40;;;51.33;;
45764;SDS011;31474;45.332;10.230;2023-02-23T00:46:39;121.90;;;51.60;;
45764;SDS011;31474;45.332;10.230;2023-02-23T00:49:06;110.22;;;49.97;;
45764;SDS011;31474;45.332;10.230;2023-02-23T00:51:31;104.97;;;51.40;;
45764;SDS011;31474;45.332;10.230;2023-02-23T00:53:58;108.72;;;51.95;;
45764;SDS011;31474;45.332;10.230;2023-02-23T00:56:25;126.43;;;50.50;;
45764;SDS011;31474;45.332;10.230;2023-02-23T00:58:51;117.03;;;52.88;;
45764;SDS011;31474;45.332;10.230;2023-02-23T01:01:17;121.75;;;52.05;;
45764;SDS011;31474;45.332;10.230;2023-02-23T01:03:43;109.60;;;51.85;;
45764;SDS011;31474;45.332;10.230;2023-02-23T01:06:11;114.43;;;55.00;;
45764;SDS011;31474;45.332;10.230;2023-02-23T01:08:42;111.95;;;51.03;;
45764;SDS011;31474;45.332;10.230;2023-02-23T01:11:14;112.90;;;52.40;;
45764;SDS011;31474;45.332;10.230;2023-02-23T01:13:42;109.38;;;51.42;;
45764;SDS011;31474;45.332;10.230;2023-02-23T01:16:10;101.50;;;48.70;;
45764;SDS011;31474;45.332;10.230;2023-02-23T01:18:38;102.35;;;49.58;;
45764;SDS011;31474;45.332;10.230;2023-02-23T01:21:06;103.47;;;49.55;;
45764;SDS011;31474;45.332;10.230;2023-02-23T01:23:42;114.10;;;48.38;;
45764;SDS011;31474;45.332;10.230;2023-02-23T01:26:18;117.93;;;52.00;;
45764;SDS011;31474;45.332;10.230;2023-02-23T01:28:54;113.07;;;50.00;;
45764;SDS011;31474;45.332;10.230;2023-02-23T01:31:22;107.90;;;49.90;;
45764;SDS011;31474;45.332;10.230;2023-02-23T01:33:59;107.55;;;52.05;;
45764;SDS011;31474;45.332;10.230;2023-02-23T01:36:26;111.90;;;48.65;;
45764;SDS011;31474;45.332;10.230;2023-02-23T01:38:53;115.75;;;50.97;;
45764;SDS011;31474;45.332;10.230;2023-02-23T01:41:21;108.18;;;51.00;;
45764;SDS011;31474;45.332;10.230;2023-02-23T01:43:54;109.47;;;51.50;;
45764;SDS011;31474;45.332;10.230;2023-02-23T01:46:31;107.97;;;50.83;;
45764;SDS011;31474;45.332;10.230;2023-02-23T01:48:58;99.70;;;48.85;;
45764;SDS011;31474;45.332;10.230;2023-02-23T01:51:26;108.40;;;49.58;;
45764;SDS011;31474;45.332;10.230;2023-02-23T01:54:13;111.95;;;50.42;;
45764;SDS011;31474;45.332;10.230;2023-02-23T01:56:43;106.47;;;49.50;;
45764;SDS011;31474;45.332;10.230;2023-02-23T01:59:13;114.55;;;51.58;;
45764;SDS011;31474;45.332;10.230;2023-02-23T02:01:40;112.63;;;50.85;;
45764;SDS011;31474;45.332;10.230;2023-02-23T02:04:07;108.72;;;49.20;;
45764;SDS011;31474;45.332;10.230;2023-02-23T02:06:40;114.40;;;52.55;;
45764;SDS011;31474;45.332;10.230;2023-02-23T02:09:10;115.35;;;51.65;;
45764;SDS011;31474;45.332;10.230;2023-02-23T02:11:42;112.25;;;48.80;;
45764;SDS011;31474;45.332;10.230;2023-02-23T02:14:17;101.72;;;48.83;;
45764;SDS011;31474;45.332;10.230;2023-02-23T02:16:51;96.88;;;50.22;;
45764;SDS011;31474;45.332;10.230;2023-02-23T02:28:12;98.93;;;46.88;;
45764;SDS011;31474;45.332;10.230;2023-02-23T02:36:54;99.03;;;46.88;;
45764;SDS011;31474;45.332;10.230;2023-02-23T02:45:09;107.63;;;48.22;;
45764;SDS011;31474;45.332;10.230;2023-02-23T02:54:01;95.50;;;47.10;;
45764;SDS011;31474;45.332;10.230;2023-02-23T02:56:36;103.68;;;48.28;;
45764;SDS011;31474;45.332;10.230;2023-02-23T02:59:15;93.35;;;47.33;;
45764;SDS011;31474;45.332;10.230;2023-02-23T03:02:03;97.30;;;46.15;;
45764;SDS011;31474;45.332;10.230;2023-02-23T03:04:48;95.25;;;49.15;;
45764;SDS011;31474;45.332;10.230;2023-02-23T03:07:39;101.75;;;48.03;;
45764;SDS011;31474;45.332;10.230;2023-02-23T03:10:43;103.35;;;47.20;;
45764;SDS011;31474;45.332;10.230;2023-02-23T03:16:40;104.18;;;46.03;;
45764;SDS011;31474;45.332;10.230;2023-02-23T03:19:35;96.95;;;45.72;;
45764;SDS011;31474;45.332;10.230;2023-02-23T03:32:04;94.22;;;43.70;;
45764;SDS011;31474;45.332;10.230;2023-02-23T03:38:10;91.95;;;45.03;;
45764;SDS011;31474;45.332;10.230;2023-02-23T03:41:13;93.05;;;47.03;;
45764;SDS011;31474;45.332;10.230;2023-02-23T03:44:01;101.88;;;44.60;;
45764;SDS011;31474;45.332;10.230;2023-02-23T03:46:50;92.15;;;44.72;;
45764;SDS011;31474;45.332;10.230;2023-02-23T03:49:35;106.68;;;47.42;;
45764;SDS011;31474;45.332;10.230;2023-02-23T03:52:30;101.20;;;47.05;;
45764;SDS011;31474;45.332;10.230;2023-02-23T03:55:25;106.07;;;46.05;;
45764;SDS011;31474;45.332;10.230;2023-02-23T03:58:14;95.35;;;44.65;;
45764;SDS011;31474;45.332;10.230;2023-02-23T04:01:03;95.07;;;46.10;;
45764;SDS011;31474;45.332;10.230;2023-02-23T04:03:50;103.68;;;46.42;;
45764;SDS011;31474;45.332;10.230;2023-02-23T04:06:38;97.60;;;45.58;;
45764;SDS011;31474;45.332;10.230;2023-02-23T04:09:26;106.90;;;47.85;;
45764;SDS011;31474;45.332;10.230;2023-02-23T04:15:41;94.10;;;45.78;;
45764;SDS011;31474;45.332;10.230;2023-02-23T04:18:14;102.05;;;45.72;;
45764;SDS011;31474;45.332;10.230;2023-02-23T04:20:42;104.88;;;48.42;;
45764;SDS011;31474;45.332;10.230;2023-02-23T04:23:08;104.20;;;50.58;;
45764;SDS011;31474;45.332;10.230;2023-02-23T04:25:34;97.57;;;46.10;;
45764;SDS011;31474;45.332;10.230;2023-02-23T04:27:59;104.70;;;47.78;;
45764;SDS011;31474;45.332;10.230;2023-02-23T04:30:25;105.65;;;48.42;;
45764;SDS011;31474;45.332;10.230;2023-02-23T04:32:52;102.88;;;47.50;;
45764;SDS011;31474;45.332;10.230;2023-02-23T04:35:18;104.45;;;49.00;;
45764;SDS011;31474;45.332;10.230;2023-02-23T04:37:44;99.00;;;48.08;;
45764;SDS011;31474;45.332;10.230;2023-02-23T04:40:09;102.10;;;46.97;;
45764;SDS011;31474;45.332;10.230;2023-02-23T04:42:37;95.18;;;46.42;;
45764;SDS011;31474;45.332;10.230;2023-02-23T04:45:03;110.07;;;50.35;;
45764;SDS011;31474;45.332;10.230;2023-02-23T04:47:30;110.13;;;47.45;;
45764;SDS011;31474;45.332;10.230;2023-02-23T04:49:55;102.70;;;46.50;;
45764;SDS011;31474;45.332;10.230;2023-02-23T04:52:21;96.25;;;47.08;;
45764;SDS011;31474;45.332;10.230;2023-02-23T04:54:47;110.55;;;49.28;;
45764;SDS011;31474;45.332;10.230;2023-02-23T04:57:12;109.30;;;48.22;;
45764;SDS011;31474;45.332;10.230;2023-02-23T04:59:38;103.28;;;47.58;;
45764;SDS011;31474;45.332;10.230;2023-02-23T05:02:04;99.97;;;48.78;;
45764;SDS011;31474;45.332;10.230;2023-02-23T05:04:30;109.93;;;47.88;;
45764;SDS011;31474;45.332;10.230;2023-02-23T05:06:56;96.60;;;47.50;;
45764;SDS011;31474;45.332;10.230;2023-02-23T05:09:22;94.25;;;45.58;;
45764;SDS011;31474;45.332;10.230;2023-02-23T05:11:47;97.90;;;47.83;;
45764;SDS011;31474;45.332;10.230;2023-02-23T05:14:13;98.57;;;44.08;;
45764;SDS011;31474;45.332;10.230;2023-02-23T05:16:39;97.63;;;46.50;;
45764;SDS011;31474;45.332;10.230;2023-02-23T05:19:04;99.10;;;43.90;;
45764;SDS011;31474;45.332;10.230;2023-02-23T05:21:30;100.07;;;48.72;;
45764;SDS011;31474;45.332;10.230;2023-02-23T05:23:56;107.40;;;48.38;;
45764;SDS011;31474;45.332;10.230;2023-02-23T05:26:22;97.63;;;45.35;;
45764;SDS011;31474;45.332;10.230;2023-02-23T05:28:48;100.63;;;46.10;;
45764;SDS011;31474;45.332;10.230;2023-02-23T05:31:14;111.38;;;49.08;;
45764;SDS011;31474;45.332;10.230;2023-02-23T05:33:40;109.75;;;47.38;;
45764;SDS011;31474;45.332;10.230;2023-02-23T05:36:10;105.78;;;46.92;;
45764;SDS011;31474;45.332;10.230;2023-02-23T05:38:37;116.75;;;47.30;;
45764;SDS011;31474;45.332;10.230;2023-02-23T05:41:05;105.38;;;46.55;;
45764;SDS011;31474;45.332;10.230;2023-02-23T05:43:32;104.90;;;49.92;;
45764;SDS011;31474;45.332;10.230;2023-02-23T05:45:58;120.65;;;54.22;;
45764;SDS011;31474;45.332;10.230;2023-02-23T05:48:25;106.47;;;50.85;;
45764;SDS011;31474;45.332;10.230;2023-02-23T05:50:51;116.85;;;53.15;;
45764;SDS011;31474;45.332;10.230;2023-02-23T05:53:17;109.15;;;51.80;;
45764;SDS011;31474;45.332;10.230;2023-02-23T05:55:42;108.30;;;50.50;;
45764;SDS011;31474;45.332;10.230;2023-02-23T05:58:08;108.88;;;51.03;;
45764;SDS011;31474;45.332;10.230;2023-02-23T06:00:34;118.30;;;53.63;;
45764;SDS011;31474;45.332;10.230;2023-02-23T06:02:59;103.60;;;48.47;;
45764;SDS011;31474;45.332;10.230;2023-02-23T06:05:25;116.65;;;49.38;;
45764;SDS011;31474;45.332;10.230;2023-02-23T06:07:50;116.72;;;49.65;;
45764;SDS011;31474;45.332;10.230;2023-02-23T06:10:17;104.90;;;48.95;;
45764;SDS011;31474;45.332;10.230;2023-02-23T06:12:42;111.93;;;52.75;;
45764;SDS011;31474;45.332;10.230;2023-02-23T06:15:08;114.90;;;51.47;;
45764;SDS011;31474;45.332;10.230;2023-02-23T06:17:34;118.70;;;50.03;;
45764;SDS011;31474;45.332;10.230;2023-02-23T06:20:00;107.13;;;49.42;;
45764;SDS011;31474;45.332;10.230;2023-02-23T06:22:28;110.70;;;49.63;;
45764;SDS011;31474;45.332;10.230;2023-02-23T06:24:54;111.03;;;51.17;;
45764;SDS011;31474;45.332;10.230;2023-02-23T06:27:20;121.43;;;52.58;;
45764;SDS011;31474;45.332;10.230;2023-02-23T06:29:46;111.55;;;51.30;;
45764;SDS011;31474;45.332;10.230;2023-02-23T06:32:12;108.38;;;48.85;;
45764;SDS011;31474;45.332;10.230;2023-02-23T06:34:37;117.38;;;52.60;;
45764;SDS011;31474;45.332;10.230;2023-02-23T06:37:04;117.50;;;51.67;;
45764;SDS011;31474;45.332;10.230;2023-02-23T06:39:30;117.53;;;52.67;;
45764;SDS011;31474;45.332;10.230;2023-02-23T06:41:56;120.00;;;52.00;;
45764;SDS011;31474;45.332;10.230;2023-02-23T06:44:21;120.68;;;54.78;;
45764;SDS011;31474;45.332;10.230;2023-02-23T06:46:47;114.90;;;55.28;;
45764;SDS011;31474;45.332;10.230;2023-02-23T06:49:13;110.18;;;52.22;;
45764;SDS011;31474;45.332;10.230;2023-02-23T06:51:38;128.23;;;52.75;;
45764;SDS011;31474;45.332;10.230;2023-02-23T06:54:04;119.63;;;52.42;;
45764;SDS011;31474;45.332;10.230;2023-02-23T06:56:29;113.95;;;53.67;;
45764;SDS011;31474;45.332;10.230;2023-02-23T06:58:55;108.63;;;53.17;;
45764;SDS011;31474;45.332;10.230;2023-02-23T07:01:21;128.90;;;53.92;;
45764;SDS011;31474;45.332;10.230;2023-02-23T07:03:46;126.47;;;58.13;;
45764;SDS011;31474;45.332;10.230;2023-02-23T07:06:12;134.25;;;59.10;;
45764;SDS011;31474;45.332;10.230;2023-02-23T07:08:38;115.45;;;54.72;;
45764;SDS011;31474;45.332;10.230;2023-02-23T07:11:12;121.25;;;56.17;;
45764;SDS011;31474;45.332;10.230;2023-02-23T07:13:39;115.85;;;54.40;;
45764;SDS011;31474;45.332;10.230;2023-02-23T07:16:06;120.07;;;54.00;;
45764;SDS011;31474;45.332;10.230;2023-02-23T07:18:32;103.63;;;50.30;;
45764;SDS011;31474;45.332;10.230;2023-02-23T07:20:58;111.22;;;49.90;;
45764;SDS011;31474;45.332;10.230;2023-02-23T07:23:23;119.30;;;51.65;;
45764;SDS011;31474;45.332;10.230;2023-02-23T07:25:50;109.72;;;49.15;;
45764;SDS011;31474;45.332;10.230;2023-02-23T07:28:17;105.57;;;51.75;;
45764;SDS011;31474;45.332;10.230;2023-02-23T07:30:43;117.13;;;51.25;;
45764;SDS011;31474;45.332;10.230;2023-02-23T07:33:09;101.68;;;51.17;;
45764;SDS011;31474;45.332;10.230;2023-02-23T07:35:35;107.70;;;50.33;;
45764;SDS011;31474;45.332;10.230;2023-02-23T07:38:00;121.18;;;51.92;;
45764;SDS011;31474;45.332;10.230;2023-02-23T07:40:26;108.80;;;46.13;;
45764;SDS011;31474;45.332;10.230;2023-02-23T07:42:52;112.05;;;51.42;;
45764;SDS011;31474;45.332;10.230;2023-02-23T07:45:19;112.00;;;49.63;;
45764;SDS011;31474;45.332;10.230;2023-02-23T07:47:45;108.00;;;46.88;;
45764;SDS011;31474;45.332;10.230;2023-02-23T07:50:11;105.85;;;51.03;;
45764;SDS011;31474;45.332;10.230;2023-02-23T07:52:38;107.70;;;48.00;;
45764;SDS011;31474;45.332;10.230;2023-02-23T07:55:05;112.25;;;50.78;;
45764;SDS011;31474;45.332;10.230;2023-02-23T07:57:32;112.80;;;53.08;;
45764;SDS011;31474;45.332;10.230;2023-02-23T07:59:58;123.85;;;55.63;;
45764;SDS011;31474;45.332;10.230;2023-02-23T08:02:24;123.43;;;52.85;;
45764;SDS011;31474;45.332;10.230;2023-02-23T08:04:50;120.13;;;51.38;;
45764;SDS011;31474;45.332;10.230;2023-02-23T08:07:18;114.90;;;55.67;;
45764;SDS011;31474;45.332;10.230;2023-02-23T08:09:44;109.30;;;52.13;;
45764;SDS011;31474;45.332;10.230;2023-02-23T08:12:10;104.93;;;52.08;;
45764;SDS011;31474;45.332;10.230;2023-02-23T08:14:35;104.15;;;49.15;;
45764;SDS011;31474;45.332;10.230;2023-02-23T08:17:01;121.32;;;53.90;;
45764;SDS011;31474;45.332;10.230;2023-02-23T08:19:27;123.55;;;56.80;;
45764;SDS011;31474;45.332;10.230;2023-02-23T08:21:53;119.50;;;57.92;;
45764;SDS011;31474;45.332;10.230;2023-02-23T08:24:20;125.15;;;55.60;;
45764;SDS011;31474;45.332;10.230;2023-02-23T08:26:45;108.60;;;52.38;;
45764;SDS011;31474;45.332;10.230;2023-02-23T08:29:11;114.22;;;54.05;;
45764;SDS011;31474;45.332;10.230;2023-02-23T08:31:37;106.70;;;51.22;;
45764;SDS011;31474;45.332;10.230;2023-02-23T08:34:02;108.10;;;52.17;;
45764;SDS011;31474;45.332;10.230;2023-02-23T08:36:28;110.25;;;54.50;;
45764;SDS011;31474;45.332;10.230;2023-02-23T08:38:54;115.22;;;56.22;;
45764;SDS011;31474;45.332;10.230;2023-02-23T08:41:20;111.97;;;53.60;;
45764;SDS011;31474;45.332;10.230;2023-02-23T08:43:46;119.97;;;54.25;;
45764;SDS011;31474;45.332;10.230;2023-02-23T08:46:12;138.07;;;58.42;;
45764;SDS011;31474;45.332;10.230;2023-02-23T08:48:40;142.27;;;59.85;;
45764;SDS011;31474;45.332;10.230;2023-02-23T08:51:06;125.93;;;59.75;;
45764;SDS011;31474;45.332;10.230;2023-02-23T08:53:32;143.90;;;59.20;;
45764;SDS011;31474;45.332;10.230;2023-02-23T08:55:59;147.18;;;57.72;;
45764;SDS011;31474;45.332;10.230;2023-02-23T08:58:27;138.15;;;60.50;;
45764;SDS011;31474;45.332;10.230;2023-02-23T09:00:58;131.65;;;59.42;;
45764;SDS011;31474;45.332;10.230;2023-02-23T09:03:25;126.07;;;58.55;;
45764;SDS011;31474;45.332;10.230;2023-02-23T09:05:54;128.90;;;58.03;;
45764;SDS011;31474;45.332;10.230;2023-02-23T09:08:20;128.95;;;61.08;;
45764;SDS011;31474;45.332;10.230;2023-02-23T09:10:47;132.65;;;59.80;;
45764;SDS011;31474;45.332;10.230;2023-02-23T09:13:12;129.63;;;57.55;;
45764;SDS011;31474;45.332;10.230;2023-02-23T09:15:40;133.98;;;59.92;;
45764;SDS011;31474;45.332;10.230;2023-02-23T09:18:06;129.80;;;57.42;;
45764;SDS011;31474;45.332;10.230;2023-02-23T09:20:39;131.07;;;59.40;;
45764;SDS011;31474;45.332;10.230;2023-02-23T09:23:07;121.32;;;56.55;;
45764;SDS011;31474;45.332;10.230;2023-02-23T09:25:32;130.98;;;58.10;;
45764;SDS011;31474;45.332;10.230;2023-02-23T09:27:58;130.55;;;59.17;;
45764;SDS011;31474;45.332;10.230;2023-02-23T09:30:24;129.70;;;60.40;;
45764;SDS011;31474;45.332;10.230;2023-02-23T09:32:51;131.40;;;56.53;;
45764;SDS011;31474;45.332;10.230;2023-02-23T09:35:19;133.15;;;60.58;;
45764;SDS011;31474;45.332;10.230;2023-02-23T09:37:47;129.20;;;57.92;;
45764;SDS011;31474;45.332;10.230;2023-02-23T09:40:22;135.93;;;58.95;;
45764;SDS011;31474;45.332;10.230;2023-02-23T09:45:41;133.80;;;60.63;;
45764;SDS011;31474;45.332;10.230;2023-02-23T09:48:15;131.52;;;58.42;;
45764;SDS011;31474;45.332;10.230;2023-02-23T09:50:50;132.88;;;60.13;;
45764;SDS011;31474;45.332;10.230;2023-02-23T09:56:13;137.70;;;60.75;;
45764;SDS011;31474;45.332;10.230;2023-02-23T09:58:44;144.77;;;61.83;;
45764;SDS011;31474;45.332;10.230;2023-02-23T10:03:58;131.93;;;57.22;;
45764;SDS011;31474;45.332;10.230;2023-02-23T10:06:35;132.43;;;59.08;;
45764;SDS011;31474;45.332;10.230;2023-02-23T10:19:23;134.55;;;63.33;;
45764;SDS011;31474;45.332;10.230;2023-02-23T10:22:01;126.20;;;61.58;;
45764;SDS011;31474;45.332;10.230;2023-02-23T10:32:40;120.97;;;55.97;;
45764;SDS011;31474;45.332;10.230;2023-02-23T10:35:20;125.45;;;54.78;;
45764;SDS011;31474;45.332;10.230;2023-02-23T10:37:47;131.63;;;58.60;;
45764;SDS011;31474;45.332;10.230;2023-02-23T10:40:15;123.22;;;59.47;;
45764;SDS011;31474;45.332;10.230;2023-02-23T10:42:42;136.25;;;59.60;;
45764;SDS011;31474;45.332;10.230;2023-02-23T10:45:11;130.02;;;59.65;;
45764;SDS011;31474;45.332;10.230;2023-02-23T10:47:42;132.80;;;58.40;;
45764;SDS011;31474;45.332;10.230;2023-02-23T10:50:09;124.85;;;60.17;;
45764;SDS011;31474;45.332;10.230;2023-02-23T10:52:41;125.70;;;60.38;;
45764;SDS011;31474;45.332;10.230;2023-02-23T10:55:25;128.63;;;58.58;;
45764;SDS011;31474;45.332;10.230;2023-02-23T10:58:13;123.82;;;56.95;;
45764;SDS011;31474;45.332;10.230;2023-02-23T11:00:56;122.53;;;56.15;;
45764;SDS011;31474;45.332;10.230;2023-02-23T11:06:04;119.05;;;54.78;;
45764;SDS011;31474;45.332;10.230;2023-02-23T11:08:34;112.35;;;51.20;;
45764;SDS011;31474;45.332;10.230;2023-02-23T11:11:16;113.72;;;53.47;;
45764;SDS011;31474;45.332;10.230;2023-02-23T11:13:49;105.80;;;50.08;;
45764;SDS011;31474;45.332;10.230;2023-02-23T11:16:28;110.07;;;52.53;;
45764;SDS011;31474;45.332;10.230;2023-02-23T11:19:02;115.53;;;52.70;;
45764;SDS011;31474;45.332;10.230;2023-02-23T11:21:30;103.43;;;50.10;;
45764;SDS011;31474;45.332;10.230;2023-02-23T11:24:00;108.30;;;50.95;;
45764;SDS011;31474;45.332;10.230;2023-02-23T11:26:36;112.13;;;52.50;;
45764;SDS011;31474;45.332;10.230;2023-02-23T11:29:14;114.60;;;54.78;;
45764;SDS011;31474;45.332;10.230;2023-02-23T11:39:49;102.47;;;50.60;;
45764;SDS011;31474;45.332;10.230;2023-02-23T11:42:16;113.75;;;54.08;;
45764;SDS011;31474;45.332;10.230;2023-02-23T11:44:50;108.70;;;52.50;;
45764;SDS011;31474;45.332;10.230;2023-02-23T11:47:26;91.27;;;49.10;;
45764;SDS011;31474;45.332;10.230;2023-02-23T11:49:53;114.15;;;54.15;;
45764;SDS011;31474;45.332;10.230;2023-02-23T11:52:19;101.65;;;50.58;;
45764;SDS011;31474;45.332;10.230;2023-02-23T11:55:01;116.38;;;56.15;;
45764;SDS011;31474;45.332;10.230;2023-02-23T11:57:31;106.43;;;53.38;;
45764;SDS011;31474;45.332;10.230;2023-02-23T12:00:01;108.68;;;52.83;;
45764;SDS011;31474;45.332;10.230;2023-02-23T12:02:43;101.47;;;52.42;;
45764;SDS011;31474;45.332;10.230;2023-02-23T12:05:20;116.38;;;54.45;;
45764;SDS011;31474;45.332;10.230;2023-02-23T12:07:53;109.10;;;54.15;;
45764;SDS011;31474;45.332;10.230;2023-02-23T12:10:41;106.18;;;55.17;;
45764;SDS011;31474;45.332;10.230;2023-02-23T12:15:49;109.18;;;52.65;;
45764;SDS011;31474;45.332;10.230;2023-02-23T12:24:01;108.88;;;52.22;;
45764;SDS011;31474;45.332;10.230;2023-02-23T12:26:35;104.60;;;52.47;;
45764;SDS011;31474;45.332;10.230;2023-02-23T12:29:22;109.47;;;50.10;;
45764;SDS011;31474;45.332;10.230;2023-02-23T12:31:56;95.30;;;50.22;;
45764;SDS011;31474;45.332;10.230;2023-02-23T12:34:31;107.32;;;51.70;;
45764;SDS011;31474;45.332;10.230;2023-02-23T12:37:26;102.13;;;50.38;;
45764;SDS011;31474;45.332;10.230;2023-02-23T12:43:01;102.55;;;49.00;;
45764;SDS011;31474;45.332;10.230;2023-02-23T12:45:43;92.50;;;47.40;;
45764;SDS011;31474;45.332;10.230;2023-02-23T12:51:27;101.00;;;50.00;;
45764;SDS011;31474;45.332;10.230;2023-02-23T12:54:00;96.10;;;46.42;;
45764;SDS011;31474;45.332;10.230;2023-02-23T12:56:34;105.22;;;50.30;;
45764;SDS011;31474;45.332;10.230;2023-02-23T13:01:56;93.40;;;48.58;;
45764;SDS011;31474;45.332;10.230;2023-02-23T13:07:19;100.05;;;49.03;;
45764;SDS011;31474;45.332;10.230;2023-02-23T13:09:59;93.68;;;46.75;;
45764;SDS011;31474;45.332;10.230;2023-02-23T13:12:41;92.82;;;47.67;;
45764;SDS011;31474;45.332;10.230;2023-02-23T13:15:20;92.85;;;47.55;;
45764;SDS011;31474;45.332;10.230;2023-02-23T13:20:25;83.47;;;43.50;;
45764;SDS011;31474;45.332;10.230;2023-02-23T13:29:05;75.53;;;38.55;;
45764;SDS011;31474;45.332;10.230;2023-02-23T13:31:40;78.85;;;39.45;;
45764;SDS011;31474;45.332;10.230;2023-02-23T13:34:09;81.22;;;42.08;;
45764;SDS011;31474;45.332;10.230;2023-02-23T13:36:39;83.35;;;40.85;;
45764;SDS011;31474;45.332;10.230;2023-02-23T13:42:19;84.15;;;40.78;;
45764;SDS011;31474;45.332;10.230;2023-02-23T13:47:57;75.90;;;41.95;;
45764;SDS011;31474;45.332;10.230;2023-02-23T13:50:34;86.63;;;41.92;;
45764;SDS011;31474;45.332;10.230;2023-02-23T13:53:27;80.00;;;40.60;;
45764;SDS011;31474;45.332;10.230;2023-02-23T13:56:04;82.25;;;43.38;;
45764;SDS011;31474;45.332;10.230;2023-02-23T14:01:21;88.50;;;43.90;;
45764;SDS011;31474;45.332;10.230;2023-02-23T14:03:55;90.72;;;41.78;;
45764;SDS011;31474;45.332;10.230;2023-02-23T14:06:24;82.20;;;43.80;;
45764;SDS011;31474;45.332;10.230;2023-02-23T14:09:27;86.80;;;45.47;;
45764;SDS011;31474;45.332;10.230;2023-02-23T14:27:56;81.25;;;39.60;;
45764;SDS011;31474;45.332;10.230;2023-02-23T14:30:26;77.28;;;39.58;;
45764;SDS011;31474;45.332;10.230;2023-02-23T14:33:07;74.55;;;38.88;;
45764;SDS011;31474;45.332;10.230;2023-02-23T14:35:59;73.53;;;38.60;;
45764;SDS011;31474;45.332;10.230;2023-02-23T14:38:30;76.20;;;41.25;;
45764;SDS011;31474;45.332;10.230;2023-02-23T14:40:58;74.82;;;40.88;;
45764;SDS011;31474;45.332;10.230;2023-02-23T14:43:47;81.90;;;40.38;;
45764;SDS011;31474;45.332;10.230;2023-02-23T14:46:18;74.20;;;39.17;;
45764;SDS011;31474;45.332;10.230;2023-02-23T14:48:59;84.07;;;40.13;;
45764;SDS011;31474;45.332;10.230;2023-02-23T14:51:39;72.22;;;39.90;;
45764;SDS011;31474;45.332;10.230;2023-02-23T14:54:21;76.63;;;37.97;;
45764;SDS011;31474;45.332;10.230;2023-02-23T14:56:48;79.53;;;37.70;;
45764;SDS011;31474;45.332;10.230;2023-02-23T14:59:19;76.50;;;39.65;;
45764;SDS011;31474;45.332;10.230;2023-02-23T15:01:47;73.47;;;39.97;;
45764;SDS011;31474;45.332;10.230;2023-02-23T15:04:18;77.13;;;39.90;;
45764;SDS011;31474;45.332;10.230;2023-02-23T15:06:46;74.47;;;38.92;;
45764;SDS011;31474;45.332;10.230;2023-02-23T15:09:32;70.97;;;37.72;;
45764;SDS011;31474;45.332;10.230;2023-02-23T15:12:05;70.32;;;37.92;;
45764;SDS011;31474;45.332;10.230;2023-02-23T15:14:40;74.85;;;36.70;;
45764;SDS011;31474;45.332;10.230;2023-02-23T15:17:11;74.78;;;36.42;;
45764;SDS011;31474;45.332;10.230;2023-02-23T15:19:40;71.40;;;36.50;;
45764;SDS011;31474;45.332;10.230;2023-02-23T15:22:07;69.25;;;36.53;;
45764;SDS011;31474;45.332;10.230;2023-02-23T15:24:40;72.82;;;36.30;;
45764;SDS011;31474;45.332;10.230;2023-02-23T15:27:20;68.85;;;33.63;;
45764;SDS011;31474;45.332;10.230;2023-02-23T15:29:48;59.42;;;31.80;;
45764;SDS011;31474;45.332;10.230;2023-02-23T15:32:18;59.17;;;32.88;;
45764;SDS011;31474;45.332;10.230;2023-02-23T15:34:52;61.10;;;32.28;;
45764;SDS011;31474;45.332;10.230;2023-02-23T15:37:29;66.13;;;34.13;;
45764;SDS011;31474;45.332;10.230;2023-02-23T15:40:20;58.83;;;31.58;;
45764;SDS011;31474;45.332;10.230;2023-02-23T15:42:54;59.80;;;32.78;;
45764;SDS011;31474;45.332;10.230;2023-02-23T15:48:07;59.92;;;31.55;;
45764;SDS011;31474;45.332;10.230;2023-02-23T15:50:42;56.28;;;29.90;;
45764;SDS011;31474;45.332;10.230;2023-02-23T15:53:27;60.10;;;29.90;;
45764;SDS011;31474;45.332;10.230;2023-02-23T15:56:00;58.65;;;29.00;;
45764;SDS011;31474;45.332;10.230;2023-02-23T16:01:11;51.50;;;27.95;;
45764;SDS011;31474;45.332;10.230;2023-02-23T16:04:06;62.67;;;31.08;;
45764;SDS011;31474;45.332;10.230;2023-02-23T16:09:24;64.00;;;32.03;;
45764;SDS011;31474;45.332;10.230;2023-02-23T16:11:53;64.30;;;32.15;;
45764;SDS011;31474;45.332;10.230;2023-02-23T16:14:41;69.80;;;34.53;;
45764;SDS011;31474;45.332;10.230;2023-02-23T16:17:18;62.70;;;34.47;;
45764;SDS011;31474;45.332;10.230;2023-02-23T16:19:50;67.57;;;33.17;;
45764;SDS011;31474;45.332;10.230;2023-02-23T16:22:20;72.30;;;34.72;;
45764;SDS011;31474;45.332;10.230;2023-02-23T16:24:57;67.40;;;36.10;;
45764;SDS011;31474;45.332;10.230;2023-02-23T16:27:26;66.13;;;34.88;;
45764;SDS011;31474;45.332;10.230;2023-02-23T16:30:03;71.10;;;34.17;;
45764;SDS011;31474;45.332;10.230;2023-02-23T16:32:40;69.68;;;34.60;;
45764;SDS011;31474;45.332;10.230;2023-02-23T16:35:09;69.60;;;35.13;;
45764;SDS011;31474;45.332;10.230;2023-02-23T16:38:21;61.45;;;33.63;;
45764;SDS011;31474;45.332;10.230;2023-02-23T16:43:03;61.88;;;33.22;;
45764;SDS011;31474;45.332;10.230;2023-02-23T16:45:28;67.60;;;33.70;;
45764;SDS011;31474;45.332;10.230;2023-02-23T16:47:54;61.42;;;32.53;;
45764;SDS011;31474;45.332;10.230;2023-02-23T16:50:26;62.45;;;34.60;;
45764;SDS011;31474;45.332;10.230;2023-02-23T16:52:52;67.97;;;33.58;;
45764;SDS011;31474;45.332;10.230;2023-02-23T16:55:23;66.72;;;33.67;;